createdAt,value
2022-08-20T00:02:31.137Z,1015.66
2022-08-20T00:07:33.239Z,1015.67
2022-08-20T00:12:33.411Z,1015.67
2022-08-20T00:17:33.510Z,1015.68
2022-08-20T00:22:33.694Z,1015.64
2022-08-20T00:27:32.814Z,1015.60
2022-08-20T00:32:33.947Z,1015.58
2022-08-20T00:37:35.078Z,1015.60
2022-08-20T00:42:37.202Z,1015.55
2022-08-20T00:47:36.368Z,1015.66
2022-08-20T00:52:37.480Z,1015.71
2022-08-20T00:57:58.936Z,1015.75
2022-08-20T01:02:39.614Z,1015.71
2022-08-20T01:07:39.749Z,1015.62
2022-08-20T01:12:38.850Z,1015.60
2022-08-20T01:17:40.998Z,1015.67
2022-08-20T01:22:41.097Z,1015.70
2022-08-20T01:27:42.714Z,1015.69
2022-08-20T01:32:41.069Z,1015.65
2022-08-20T01:37:41.149Z,1015.74
2022-08-20T01:42:59.162Z,1015.69
2022-08-20T01:47:40.343Z,1015.62
2022-08-20T01:52:41.331Z,1015.65
2022-08-20T01:57:40.477Z,1015.65
2022-08-20T02:02:42.605Z,1015.68
2022-08-20T02:07:42.794Z,1015.64
2022-08-20T02:12:44.109Z,1015.70
2022-08-20T02:17:43.293Z,1015.68
2022-08-20T02:22:50.088Z,1015.75
2022-08-20T02:27:44.483Z,1015.73
2022-08-20T02:32:45.393Z,1015.59
2022-08-20T02:37:47.546Z,1015.62
2022-08-20T02:42:46.736Z,1015.62
2022-08-20T02:47:47.875Z,1015.62
2022-08-20T02:52:51.797Z,1015.57
2022-08-20T02:57:51.858Z,1015.59
2022-08-20T03:02:50.492Z,1015.51
2022-08-20T03:07:49.705Z,1015.44
2022-08-20T03:12:50.825Z,1015.40
2022-08-20T03:17:52.934Z,1015.47
2022-08-20T03:22:52.045Z,1015.57
2022-08-20T03:27:54.867Z,1015.56
2022-08-20T03:32:54.139Z,1015.49
2022-08-20T03:37:55.336Z,1015.40
2022-08-20T03:42:57.448Z,1015.34
2022-08-20T03:47:56.658Z,1015.35
2022-08-20T03:52:57.882Z,1015.43
2022-08-20T03:58:01.025Z,1015.52
2022-08-20T04:03:00.109Z,1015.63
2022-08-20T04:08:03.096Z,1015.68
2022-08-20T04:13:02.670Z,1015.62
2022-08-20T04:18:03.795Z,1015.67
2022-08-20T04:23:04.919Z,1015.71
2022-08-20T04:28:06.038Z,1015.83
2022-08-20T04:33:07.157Z,1015.74
2022-08-20T04:38:09.272Z,1015.72
2022-08-20T04:43:09.370Z,1015.76
2022-08-20T04:48:14.796Z,1015.80
2022-08-20T04:53:11.394Z,1015.84
2022-08-20T04:58:10.518Z,1015.86
2022-08-20T05:03:12.620Z,1015.93
2022-08-20T05:08:19.601Z,1015.99
2022-08-20T05:13:12.748Z,1016.07
2022-08-20T05:18:13.053Z,1016.14
2022-08-20T05:23:15.171Z,1016.13
2022-08-20T05:28:14.326Z,1016.20
2022-08-20T05:33:17.477Z,1016.23
2022-08-20T05:38:17.915Z,1016.29
2022-08-20T05:43:17.089Z,1016.34
2022-08-20T05:48:19.220Z,1016.37
2022-08-20T05:53:19.360Z,1016.39
2022-08-20T05:58:19.466Z,1016.26
2022-08-20T06:03:19.578Z,1016.24
2022-08-20T06:08:19.678Z,1016.17
2022-08-20T06:13:19.853Z,1016.23
2022-08-20T06:18:27.651Z,1016.16
2022-08-20T06:23:19.935Z,1016.19
2022-08-20T06:28:18.195Z,1016.19
2022-08-20T06:33:19.320Z,1016.18
2022-08-20T06:38:19.459Z,1016.13
2022-08-20T06:43:20.608Z,1016.13
2022-08-20T06:48:21.720Z,1016.10
2022-08-20T06:53:22.907Z,1016.22
2022-08-20T06:58:36.856Z,1016.26
2022-08-20T07:03:25.105Z,1016.23
2022-08-20T07:08:23.209Z,1016.29
2022-08-20T07:13:24.332Z,1016.24
2022-08-20T07:18:28.073Z,1016.22
2022-08-20T07:23:26.029Z,1016.21
2022-08-20T07:28:29.134Z,1016.15
2022-08-20T07:33:28.582Z,1016.16
2022-08-20T07:38:30.477Z,1016.12
2022-08-20T07:43:30.619Z,1016.11
2022-08-20T07:48:32.020Z,1016.05
2022-08-20T07:53:33.619Z,1016.04
2022-08-20T07:58:33.359Z,1016.08
2022-08-20T08:03:39.494Z,1016.15
2022-08-20T08:08:30.794Z,1016.13
2022-08-20T08:13:31.934Z,1016.05
2022-08-20T08:18:33.078Z,1016.10
2022-08-20T08:23:34.258Z,1016.19
2022-08-20T08:28:35.570Z,1016.20
2022-08-20T08:33:39.276Z,1016.07
2022-08-20T08:38:36.613Z,1016.06
2022-08-20T08:43:38.002Z,1016.00
2022-08-20T08:48:39.281Z,1016.08
2022-08-20T08:53:40.511Z,1016.09
2022-08-20T08:58:41.727Z,1016.15
2022-08-20T09:03:43.039Z,1016.14
2022-08-20T09:08:45.135Z,1016.09
2022-08-20T09:13:44.400Z,1016.05
2022-08-20T09:18:46.725Z,1016.09
2022-08-20T09:23:46.818Z,1015.99
2022-08-20T09:28:51.594Z,1015.99
2022-08-20T09:33:45.933Z,1015.95
2022-08-20T09:38:49.108Z,1015.92
2022-08-20T09:43:48.225Z,1015.99
2022-08-20T09:48:49.407Z,1015.99
2022-08-20T09:53:50.750Z,1015.97
2022-08-20T09:58:52.201Z,1016.01
2022-08-20T10:03:53.378Z,1015.95
2022-08-20T10:08:56.568Z,1015.95
2022-08-20T10:13:55.698Z,1015.93
2022-08-20T10:18:56.845Z,1015.93
2022-08-20T10:23:58.002Z,1015.99
2022-08-20T10:28:59.259Z,1016.05
2022-08-20T10:34:00.422Z,1015.99
2022-08-20T10:39:02.523Z,1015.94
2022-08-20T10:44:01.707Z,1015.90
2022-08-20T10:49:03.837Z,1015.86
2022-08-20T10:54:06.307Z,1015.88
2022-08-20T10:59:04.039Z,1015.76
2022-08-20T11:04:05.287Z,1015.77
2022-08-20T11:09:06.389Z,1015.80
2022-08-20T11:14:06.925Z,1015.81
2022-08-20T11:19:09.041Z,1015.80
2022-08-20T11:24:08.267Z,1016.03
2022-08-20T11:29:09.553Z,1016.00
2022-08-20T11:34:12.846Z,1016.01
2022-08-20T11:39:12.158Z,1016.08
2022-08-20T11:44:21.080Z,1016.10
2022-08-20T11:49:13.269Z,1016.14
2022-08-20T11:54:13.352Z,1016.11
2022-08-20T11:59:14.463Z,1016.18
2022-08-20T12:04:15.659Z,1016.30
2022-08-20T12:09:16.816Z,1016.19
2022-08-20T12:14:19.192Z,1016.11
2022-08-20T12:19:18.298Z,1016.09
2022-08-20T12:24:21.478Z,1016.07
2022-08-20T12:29:21.613Z,1015.92
2022-08-20T12:34:20.737Z,1015.91
2022-08-20T12:39:21.865Z,1015.96
2022-08-20T12:44:23.963Z,1015.94
2022-08-20T12:49:24.081Z,1015.94
2022-08-20T12:54:24.202Z,1016.00
2022-08-20T12:59:26.109Z,1015.96
2022-08-20T13:04:24.332Z,1015.95
2022-08-20T13:09:27.352Z,1015.99
2022-08-20T13:14:25.512Z,1015.98
2022-08-20T13:19:25.600Z,1015.88
2022-08-20T13:24:24.703Z,1015.78
2022-08-20T13:29:25.800Z,1015.81
2022-08-20T13:34:26.934Z,1015.72
2022-08-20T13:39:28.020Z,1015.72
2022-08-20T13:44:33.083Z,1015.75
2022-08-20T13:49:33.970Z,1015.68
2022-08-20T13:54:31.265Z,1015.60
2022-08-20T13:59:33.355Z,1015.55
2022-08-20T14:04:33.466Z,1015.53
2022-08-20T14:09:32.579Z,1015.54
2022-08-20T14:14:34.740Z,1015.56
2022-08-20T14:19:33.806Z,1015.59
2022-08-20T14:24:34.987Z,1015.52
2022-08-20T14:29:37.219Z,1015.49
2022-08-20T14:34:36.317Z,1015.47
2022-08-20T14:39:37.732Z,1015.47
2022-08-20T14:44:38.875Z,1015.44
2022-08-20T14:49:40.239Z,1015.44
2022-08-20T14:54:41.444Z,1015.47
2022-08-20T14:59:42.579Z,1015.63
2022-08-20T15:04:43.679Z,1015.53
2022-08-20T15:09:44.629Z,1015.53
2022-08-20T15:14:43.850Z,1015.52
2022-08-20T15:19:45.025Z,1015.52
2022-08-20T15:24:46.225Z,1015.65
2022-08-20T15:29:47.364Z,1015.72
2022-08-20T15:34:50.497Z,1015.85
2022-08-20T15:39:49.671Z,1015.79
2022-08-20T15:44:52.792Z,1015.87
2022-08-20T15:49:51.982Z,1016.00
2022-08-20T15:54:56.407Z,1016.07
2022-08-20T15:59:53.801Z,1016.20
2022-08-20T16:04:54.939Z,1016.32
2022-08-20T16:09:58.091Z,1016.29
2022-08-20T16:14:58.213Z,1016.24
2022-08-20T16:19:58.467Z,1016.27
2022-08-20T16:24:58.587Z,1016.37
2022-08-20T16:29:59.011Z,1016.55
2022-08-20T16:34:58.106Z,1016.54
2022-08-20T16:40:00.307Z,1016.62
2022-08-20T16:45:00.460Z,1016.80
2022-08-20T16:49:59.613Z,1016.86
2022-08-20T16:55:02.932Z,1016.85
2022-08-20T17:00:02.433Z,1016.82
2022-08-20T17:05:02.638Z,1016.83
2022-08-20T17:10:02.938Z,1016.70
2022-08-20T17:15:03.475Z,1016.70
2022-08-20T17:20:02.884Z,1016.69
2022-08-20T17:25:06.015Z,1016.66
2022-08-20T17:30:06.127Z,1016.67
2022-08-20T17:35:05.233Z,1016.52
2022-08-20T17:40:08.465Z,1016.53
2022-08-20T17:45:07.631Z,1016.66
2022-08-20T17:50:08.824Z,1016.67
2022-08-20T17:55:10.059Z,1016.62
2022-08-20T18:00:12.220Z,1016.67
2022-08-20T18:05:11.391Z,1016.67
2022-08-20T18:10:13.510Z,1016.70
2022-08-20T18:15:12.730Z,1016.72
2022-08-20T18:20:13.854Z,1016.66
2022-08-20T18:25:15.010Z,1016.68
2022-08-20T18:30:16.170Z,1016.70
2022-08-20T18:35:17.321Z,1016.75
2022-08-20T18:40:18.697Z,1016.83
2022-08-20T18:45:19.859Z,1016.86
2022-08-20T18:50:21.297Z,1016.83
2022-08-20T18:55:22.456Z,1016.82
2022-08-20T19:00:30.103Z,1016.80
2022-08-20T19:05:24.741Z,1016.84
2022-08-20T19:10:27.951Z,1016.81
2022-08-20T19:15:25.541Z,1016.77
2022-08-20T19:20:28.648Z,1016.79
2022-08-20T19:25:28.833Z,1016.81
2022-08-20T19:30:28.961Z,1016.84
2022-08-20T19:35:28.084Z,1016.83
2022-08-20T19:40:30.189Z,1016.89
2022-08-20T19:45:30.294Z,1016.90
2022-08-20T19:50:29.460Z,1016.85
2022-08-20T19:55:30.635Z,1016.93
2022-08-20T20:00:31.800Z,1016.93
2022-08-20T20:05:32.991Z,1016.90
2022-08-20T20:10:34.211Z,1016.86
2022-08-20T20:15:35.459Z,1016.86
2022-08-20T20:20:36.724Z,1016.90
2022-08-20T20:25:37.938Z,1016.86
2022-08-20T20:30:40.120Z,1016.88
2022-08-20T20:35:40.307Z,1016.87
2022-08-20T20:40:39.471Z,1016.88
2022-08-20T20:45:41.931Z,1016.90
2022-08-20T20:50:43.098Z,1016.80
2022-08-20T20:55:43.246Z,1016.95
2022-08-20T21:00:43.349Z,1016.95
2022-08-20T21:05:42.539Z,1017.00
2022-08-20T21:10:44.637Z,1017.01
2022-08-20T21:15:44.878Z,1017.05
2022-08-20T21:20:45.035Z,1016.98
2022-08-20T21:25:44.265Z,1017.00
2022-08-20T21:30:46.498Z,1016.99
2022-08-20T21:35:45.819Z,1017.03
2022-08-20T21:40:47.943Z,1016.97
2022-08-20T21:45:49.569Z,1016.99
2022-08-20T21:50:47.891Z,1016.97
2022-08-20T21:55:47.009Z,1016.91
2022-08-20T22:00:49.180Z,1016.97
2022-08-20T22:05:50.308Z,1016.93
2022-08-20T22:10:49.452Z,1016.92
2022-08-20T22:15:51.582Z,1016.90
2022-08-20T22:20:51.670Z,1016.90
2022-08-20T22:25:50.761Z,1016.97
2022-08-20T22:30:51.845Z,1016.95
2022-08-20T22:35:53.984Z,1016.94
2022-08-20T22:40:53.130Z,1016.90
2022-08-20T22:45:55.246Z,1016.83
2022-08-20T22:50:54.663Z,1016.84
2022-08-20T22:55:55.901Z,1016.81
2022-08-20T23:00:55.435Z,1016.80
2022-08-20T23:05:57.662Z,1016.79
2022-08-20T23:10:56.906Z,1016.80
2022-08-20T23:15:58.090Z,1016.79
2022-08-20T23:20:59.286Z,1016.81
2022-08-20T23:26:00.476Z,1016.80
2022-08-20T23:31:02.630Z,1016.74
2022-08-20T23:36:00.763Z,1016.72
2022-08-20T23:41:01.858Z,1016.74
2022-08-20T23:46:03.977Z,1016.70
2022-08-20T23:51:03.245Z,1016.64
2022-08-20T23:56:05.390Z,1016.54
